Nearby METAR Reports

 

KMHT - Manchester, New Hampshire, USA
Distance from station: NNW 6mi, 9km
Updated: 2018-02-24 19:53
Overcast
Overcast
 Wind from NNW
Wind: NNW 7 mph , 11 km/h
Temperature: 43°F , 6°C
Wind Chill: 39°F , 4°C
Dew Point: 28°F , -2°C
Humidity: 57%
Barometer: 30.21 inHg , 1023 hPa
Clouds: Overcast
Visibility: 10 miles , 16 km
Cloud details: Overcast 22000 ft
2018/02/25 00:53 KMHT 250053Z 34006KT 10SM OVC220 06/M02 A3021 RMK AO2 PRESRR SLP246 T00561022
KASH - Nashua/Boire Fld, New Hampshire, USA
Distance from station: SW 9mi, 15km
Updated: 2018-02-24 19:56
Overcast
Overcast
 Wind from WNW
Wind: WNW 6 mph , 9 km/h
Temperature: 43°F , 6°C
Wind Chill: 39°F , 4°C
Dew Point: 30°F , -1°C
Humidity: 61%
Barometer: 30.23 inHg , 1023.7 hPa
Clouds: Overcast
Visibility: 10 miles , 16 km
Cloud details: Overcast 12000 ft
2018/02/25 00:56 KASH 250056Z 30005KT 10SM OVC120 06/M01 A3023 RMK AO2 SLPNO T00561011
 
KLWM - Lawrence, Massachusetts, USA
Distance from station: SE 16mi, 26km
Updated: 2018-02-24 19:54
Clear
Clear
 Wind from N
Wind: N 5 mph , 7 km/h
Temperature: 45°F , 7°C
Wind Chill: 42°F , 6°C
Dew Point: 28°F , -2°C
Humidity: 53%
Barometer: 30.23 inHg , 1023.7 hPa
Clouds: Clear
Visibility: 10 miles , 16 km
2018/02/25 00:54 KLWM 250054Z 36004KT 10SM CLR 07/M02 A3023 RMK AO2 SLP236 T00721017
KCON - Concord, New Hampshire, USA
Distance from station: NNW 24mi, 39km
Updated: 2018-02-24 19:51
Clear
Clear
 Wind from NNE
Wind: NNE 5 mph , 7 km/h
Temperature: 37°F , 3°C
Wind Chill: 33°F , 1°C
Dew Point: 28°F , -2°C
Humidity: 70%
Barometer: 30.22 inHg , 1023.4 hPa
Clouds: Clear
Visibility: 10 miles , 16 km
2018/02/25 00:51 KCON 250051Z AUTO 02004KT 10SM CLR 03/M02 A3022 RMK AO2 SLP237 T00331022
 
KBED - Bedford, Massachusetts, USA
Distance from station: S 28mi, 45km
Updated: 2018-02-24 19:56
Mostly cloudy
Mostly cloudy
 Wind from N
Wind: N 7 mph , 11 km/h
Temperature: 43°F , 6°C
Wind Chill: 39°F , 4°C
Dew Point: 28°F , -2°C
Humidity: 57%
Barometer: 30.21 inHg , 1023 hPa
Clouds: Mostly cloudy
Visibility: 10 miles , 16 km
Cloud details: Mostly cloudy 12000 ft
2018/02/25 00:56 KBED 250056Z 35006KT 10SM BKN120 06/M02 A3021 RMK AO2 PRESRR SLP244 T00611017
KFIT - Fitchburg, Massachusetts, USA
Distance from station: SW 29mi, 47km
Updated: 2018-02-24 19:52
Clear
Clear
 Wind from N
Wind: N 3 mph , 6 km/h
Temperature: 45°F , 7°C
Dew Point: 32°F , 0°C
Humidity: 61%
Barometer: 30.22 inHg , 1023.4 hPa
Clouds: Clear
Visibility: 10 miles , 16 km
2018/02/25 00:52 KFIT 250052Z AUTO 36003KT 10SM CLR 07/00 A3022 RMK AO2 SLP236 T00720000 TSNO
 
KBVY - Beverly, Massachusetts, USA
Distance from station: SE 30mi, 49km
Updated: 2018-02-24 19:53
Clear
Clear
 Wind from NNW
Wind: NNW 9 mph , 15 km/h
Temperature: 45°F , 7°C
Wind Chill: 40°F , 4°C
Dew Point: 30°F , -1°C
Humidity: 57%
Barometer: 30.20 inHg , 1022.7 hPa
Clouds: Clear
Visibility: 10 miles , 16 km
2018/02/25 00:53 KBVY 250053Z 33008KT 10SM CLR 07/M01 A3020 RMK AO2 SLP223 LAST T00671011
KPSM - Portsmouth/Pease, New Hampshire, USA
Distance from station: ENE 31mi, 51km
Updated: 2018-02-24 19:56
Overcast
Overcast
 Wind from NW
Wind: NW 8 mph , 13 km/h
Temperature: 37°F , 3°C
Wind Chill: 31°F , -1°C
Dew Point: 27°F , -3°C
Humidity: 65%
Barometer: 30.20 inHg , 1022.7 hPa
Clouds: Overcast
Visibility: 10 miles , 16 km
Cloud details: Few Clouds 15000 ft
Overcast 25000 ft
2018/02/25 00:56 KPSM 250056Z 32007KT 10SM FEW150 OVC250 03/M03 A3020 RMK AO2A SLP230 T00331029
 
KAFN - Jaffrey, New Hampshire, USA
Distance from station: W 32mi, 52km
Updated: 2018-02-24 19:52
Clear
Clear
 Wind from calm
Wind: Calm
Temperature: 36°F , 2°C
Dew Point: 32°F , 0°C
Humidity: 87%
Barometer: 30.20 inHg , 1022.7 hPa
Clouds: Clear
Visibility: 10 miles , 16 km
2018/02/25 00:52 KAFN 250052Z AUTO 00000KT 10SM CLR 02/00 A3020 RMK AO2 PRESRR SLP241 T00220000
KDAW - Rochester, New Hampshire, USA
Distance from station: NE 37mi, 60km
Updated: 2018-02-24 19:51
Clear
Clear
 Wind from WNW
Wind: WNW 7 mph , 11 km/h
Temperature: 37°F , 3°C
Wind Chill: 32°F , 0°C
Dew Point: 28°F , -2°C
Humidity: 70%
Barometer: 30.21 inHg , 1023 hPa
Clouds: Clear
Visibility: 10 miles , 16 km
2018/02/25 00:51 KDAW 250051Z AUTO 30006KT 10SM CLR 03/M02 A3021 RMK AO2 PRESRR SLP229 T00331022
 
KBOS - Boston, Massachusetts, USA
Distance from station: SSE 39mi, 63km
Updated: 2018-02-24 19:54
Overcast
Overcast
 Wind from N
Wind: N 3 mph , 6 km/h
Temperature: 45°F , 7°C
Dew Point: 36°F , 2°C
Humidity: 71%
Barometer: 30.20 inHg , 1022.7 hPa
Clouds: Overcast
Visibility: 10 miles , 16 km
Cloud details: Few Clouds 11000 ft
Mostly cloudy 21000 ft
Overcast 24000 ft
2018/02/25 00:54 KBOS 250054Z 36003KT 10SM FEW110 BKN210 OVC240 07/02 A3020 RMK AO2 SLP227 T00720022
KEEN - Keene/Dillant, New Hampshire, USA
Distance from station: W 45mi, 73km
Updated: 2018-02-24 19:56
Clear
Clear
 Wind from calm
Wind: Calm
Temperature: 36°F , 2°C
Dew Point: 28°F , -2°C
Humidity: 75%
Barometer: 30.22 inHg , 1023.4 hPa
Clouds: Clear
Visibility: 10 miles , 16 km
2018/02/25 00:56 KEEN 250056Z AUTO 00000KT 10SM CLR 02/M02 A3022 RMK AO2 SLP254 T00221017 FZRANO
 
KMQE - East Milton, Massachusetts, USA
Distance from station: SSE 47mi, 75km
Updated: 2018-02-24 19:56

 Wind from E
Wind: E 9 mph , 15 km/h
Barometer: 30.17 inHg , 1021.7 hPa
2018/02/25 00:56 KMQE 250056Z AUTO 08008KT A3017 RMK AO1 SLPNO $
KORH - Worcester, Massachusetts, USA
Distance from station: SSW 48mi, 78km
Updated: 2018-02-24 19:54
Few Clouds
Few Clouds
 Wind from N
Wind: N 13 mph , 20 km/h
Temperature: 43°F , 6°C
Wind Chill: 36°F , 2°C
Dew Point: 32°F , 0°C
Humidity: 66%
Barometer: 30.19 inHg , 1022.4 hPa
Clouds: Few Clouds
Visibility: 10 miles , 16 km
Cloud details: Few Clouds 12000 ft
2018/02/25 00:54 KORH 250054Z 01011KT 10SM FEW120 06/00 A3019 RMK AO2 PRESRR SLP232 T00560000 $
 
KOWD - Norwood, Massachusetts, USA
Distance from station: SSE 48mi, 78km
Updated: 2018-02-24 19:53
Few Clouds
Few Clouds
 Wind from E
Wind: E 6 mph , 9 km/h
Temperature: 48°F , 9°C
Wind Chill: 45°F , 7°C
Dew Point: 36°F , 2°C
Humidity: 62%
Barometer: 30.19 inHg , 1022.4 hPa
Clouds: Few Clouds
Visibility: 10 miles , 16 km
Cloud details: Few Clouds 12000 ft
2018/02/25 00:53 KOWD 250053Z 08005KT 10SM FEW120 09/02 A3019 RMK AO2 SLP222 T00940022
KLCI - Laconia Muni, New Hampshire, USA
Distance from station: N 49mi, 78km
Updated: 2018-02-24 19:56
Clear
Clear
 Wind from calm
Wind: Calm
Temperature: 36°F , 2°C
Dew Point: 25°F , -4°C
Humidity: 65%
Barometer: 30.20 inHg , 1022.7 hPa
Clouds: Clear
Visibility: 10 miles , 16 km
2018/02/25 00:56 KLCI 250056Z AUTO 00000KT 10SM CLR 02/M04 A3020 RMK AO2 SLP249 T00221044 FZRANO
 
KSFM - Sanford Muni, Maine, USA
Distance from station: NE 49mi, 79km
Updated: 2018-02-24 19:56
Clear
Clear
 Wind from calm
Wind: Calm
Temperature: 30°F , -1°C
Dew Point: 27°F , -3°C
Humidity: 86%
Barometer: 30.23 inHg , 1023.7 hPa
Clouds: Clear
Visibility: 10 miles , 16 km
2018/02/25 00:56 KSFM 250056Z AUTO 00000KT 10SM CLR M01/M03 A3023 RMK AO2 SLP242 T10061028 FZRANO